Portada
METAR-TAF:

METAR-TAF

Aeroports :

Chișinău, Moldàvia

latitud: 46-55-40N, longitud: 028-55-51E, altitud: 122 m

Observació

L'informe es va fer fa 25 minuts, a les 05:30 UTC
Vent 5 kt del Oest, variant entre Sud-Oest i Oest/Nord-Oest
Temperatura 16°C
Humitat 63%
Pressió 1006 hPa
Visibilitat 10 km o més
sense núvols per sota de 1500 mi sense presència de cumulonimbus.

METAR: LUKK 040530Z 26005KT 220V300 CAVOK 16/09 Q1006 R26/D NOSIG

Hora: 08:55 (05:55 UTC)

Pronòstic

L'informe es va fer fa 35 minuts, a les 05:20 UTC
Pronòstic vàlid del 04 a les 06 UTC al 05 a les 06 UTC
Vent 10 kt del Sud/Sud-Oest
Visibilitat 10 km o més
sense núvols per sota de 1500 mi sense presència de cumulonimbus.
Probabilitat 40% :
Temporalment
l' 04 a les 09 UTC al 04 a les 18 UTC
Núvols disperses a una alçada de 3500 ft, Cumulonimbus.

TAF: LUKK 040520Z 0406/0506 21010KT CAVOK PROB40 TEMPO 0409/0418 SCT035CB

Observacions i pronòstics meteorològics de més de 4000 aeroports (METAR i TAF).

Les estacions disponibles són els punts grocs i vermells al mapa.

Posi el ratolí al punt desitjat per veure el nom de l'estació.

Feu clic per veure les observacions i els pronòstics meteorològics.

Per canviar el mapa: feu clic els botons verds amb una creu de color negre per apropar; al botó verd amb un guió per allunyar la imatge; o en les fletxes verdes per a mapes adjacents.


METAR-TAF: